createdAt,value
2023-02-12T00:00:51.983Z,10.23
2023-02-12T00:03:19.833Z,8.87
2023-02-12T00:05:47.577Z,9.30
2023-02-12T00:08:16.288Z,9.13
2023-02-12T00:10:45.748Z,8.77
2023-02-12T00:13:14.933Z,9.57
2023-02-12T00:15:43.952Z,8.70
2023-02-12T00:18:11.731Z,7.50
2023-02-12T00:20:39.745Z,8.60
2023-02-12T00:23:07.849Z,7.33
2023-02-12T00:25:35.638Z,7.43
2023-02-12T00:28:04.746Z,7.43
2023-02-12T00:30:32.859Z,7.33
2023-02-12T00:33:00.644Z,7.23
2023-02-12T00:35:28.450Z,6.40
2023-02-12T00:37:56.167Z,7.93
2023-02-12T00:40:23.910Z,7.47
2023-02-12T00:42:51.625Z,7.07
2023-02-12T00:45:21.640Z,7.80
2023-02-12T00:47:49.385Z,7.73
2023-02-12T00:50:17.400Z,6.63
2023-02-12T00:52:45.185Z,6.70
2023-02-12T00:55:12.929Z,7.33
2023-02-12T00:57:40.690Z,6.93
2023-02-12T01:00:09.656Z,7.00
2023-02-12T01:02:38.749Z,7.07
2023-02-12T01:05:07.061Z,6.93
2023-02-12T01:07:34.864Z,6.37
2023-02-12T01:10:02.623Z,7.03
2023-02-12T01:12:30.340Z,6.80
2023-02-12T01:14:58.044Z,7.27
2023-02-12T01:17:25.899Z,7.07
2023-02-12T01:19:59.772Z,7.17
2023-02-12T01:22:27.491Z,7.57
2023-02-12T01:24:55.196Z,7.10
2023-02-12T01:27:22.921Z,5.53
2023-02-12T01:29:50.878Z,6.13
2023-02-12T01:32:18.704Z,5.63
2023-02-12T01:34:46.448Z,6.10
2023-02-12T01:37:16.445Z,5.33
2023-02-12T01:39:44.289Z,5.40
2023-02-12T01:42:13.544Z,5.83
2023-02-12T01:44:45.057Z,5.57
2023-02-12T01:47:18.970Z,4.93
2023-02-12T01:49:48.538Z,5.23
2023-02-12T01:52:25.023Z,4.97
2023-02-12T01:54:57.066Z,4.90
2023-02-12T01:57:25.734Z,5.40
2023-02-12T01:59:55.919Z,5.20
2023-02-12T02:02:23.663Z,5.17
2023-02-12T02:04:55.056Z,5.57
2023-02-12T02:07:24.744Z,4.53
2023-02-12T02:09:53.133Z,5.37
2023-02-12T02:12:38.564Z,4.87
2023-02-12T02:15:08.853Z,5.17
2023-02-12T02:17:46.726Z,4.80
2023-02-12T02:20:49.093Z,5.33
2023-02-12T02:23:48.739Z,5.10
2023-02-12T02:26:54.038Z,5.80
2023-02-12T02:29:43.117Z,5.03
2023-02-12T02:32:18.165Z,4.97
2023-02-12T02:34:55.346Z,5.83
2023-02-12T02:37:29.568Z,5.17
2023-02-12T02:40:00.801Z,5.70
2023-02-12T02:42:32.119Z,5.47
2023-02-12T02:45:04.156Z,5.70
2023-02-12T02:47:37.769Z,5.30
2023-02-12T02:50:10.297Z,5.67
2023-02-12T02:52:42.811Z,5.73
2023-02-12T02:55:13.914Z,5.47
2023-02-12T02:57:47.516Z,5.93
2023-02-12T03:00:19.158Z,6.20
2023-02-12T03:02:53.410Z,6.23
2023-02-12T03:05:27.756Z,6.67
2023-02-12T03:08:00.507Z,6.83
2023-02-12T03:10:33.022Z,6.30
2023-02-12T03:13:07.040Z,5.77
2023-02-12T03:15:38.901Z,6.63
2023-02-12T03:18:12.576Z,6.03
2023-02-12T03:20:46.026Z,6.67
2023-02-12T03:23:18.587Z,6.17
2023-02-12T03:25:54.239Z,6.80
2023-02-12T03:28:26.732Z,6.27
2023-02-12T03:31:03.769Z,7.23
2023-02-12T03:33:40.520Z,7.43
2023-02-12T03:36:14.583Z,6.33
2023-02-12T03:38:46.896Z,6.27
2023-02-12T03:41:21.381Z,7.63
2023-02-12T03:43:53.421Z,6.60
2023-02-12T03:46:26.304Z,7.23
2023-02-12T03:49:03.195Z,6.80
2023-02-12T03:51:36.143Z,7.10
2023-02-12T03:54:05.972Z,7.17
2023-02-12T03:56:37.236Z,6.70
2023-02-12T03:59:05.617Z,6.93
2023-02-12T04:01:49.716Z,5.90
2023-02-12T04:04:19.028Z,5.97
2023-02-12T04:06:48.162Z,6.70
2023-02-12T04:09:16.647Z,6.57
2023-02-12T04:11:54.881Z,6.27
2023-02-12T04:14:30.019Z,6.90
2023-02-12T04:17:04.697Z,6.67
2023-02-12T04:19:44.228Z,7.53
2023-02-12T04:22:19.702Z,6.53
2023-02-12T04:24:56.862Z,7.07
2023-02-12T04:27:30.416Z,6.87
2023-02-12T04:30:04.407Z,7.10
2023-02-12T04:32:37.219Z,6.27
2023-02-12T04:35:11.327Z,5.80
2023-02-12T04:37:43.061Z,6.00
2023-02-12T04:40:13.601Z,5.90
2023-02-12T04:42:44.579Z,7.47
2023-02-12T04:45:13.242Z,6.97
2023-02-12T04:47:40.993Z,6.20
2023-02-12T04:50:11.116Z,7.57
2023-02-12T04:52:38.889Z,6.73
2023-02-12T04:55:07.268Z,6.43
2023-02-12T04:57:35.026Z,6.30
2023-02-12T05:00:02.910Z,6.80
2023-02-12T05:02:30.640Z,6.57
2023-02-12T05:04:58.424Z,6.50
2023-02-12T05:07:27.574Z,6.53
2023-02-12T05:09:55.682Z,6.80
2023-02-12T05:12:23.422Z,6.70
2023-02-12T05:14:51.146Z,5.93
2023-02-12T05:17:18.896Z,6.40
2023-02-12T05:19:48.623Z,5.97
2023-02-12T05:22:16.403Z,5.97
2023-02-12T05:24:45.726Z,6.67
2023-02-12T05:27:13.469Z,6.47
2023-02-12T05:29:41.276Z,6.90
2023-02-12T05:32:09.506Z,7.43
2023-02-12T05:34:38.066Z,6.37
2023-02-12T05:37:05.797Z,6.93
2023-02-12T05:39:33.550Z,6.60
2023-02-12T05:42:02.597Z,6.43
2023-02-12T05:44:30.325Z,6.83
2023-02-12T05:46:58.066Z,6.33
2023-02-12T05:49:25.816Z,6.47
2023-02-12T05:51:53.520Z,7.53
2023-02-12T05:54:21.243Z,6.67
2023-02-12T05:56:49.534Z,6.60
2023-02-12T05:59:20.671Z,6.70
2023-02-12T06:01:49.472Z,6.50
2023-02-12T06:04:21.007Z,6.57
2023-02-12T06:06:48.796Z,6.50
2023-02-12T06:09:16.663Z,6.67
2023-02-12T06:11:45.391Z,6.67
2023-02-12T06:14:15.676Z,6.30
2023-02-12T06:16:46.834Z,6.70
2023-02-12T06:19:14.960Z,6.80
2023-02-12T06:21:43.057Z,5.87
2023-02-12T06:24:12.004Z,6.17
2023-02-12T06:26:39.802Z,6.40
2023-02-12T06:29:07.890Z,6.33
2023-02-12T06:31:37.935Z,5.97
2023-02-12T06:34:09.239Z,6.70
2023-02-12T06:36:39.171Z,6.83
2023-02-12T06:39:07.324Z,6.53
2023-02-12T06:41:35.403Z,6.07
2023-02-12T06:44:03.188Z,5.73
2023-02-12T06:46:31.262Z,5.93
2023-02-12T06:49:00.715Z,5.73
2023-02-12T06:51:31.449Z,6.17
2023-02-12T06:53:59.716Z,6.70
2023-02-12T06:56:28.210Z,6.60
2023-02-12T06:58:57.680Z,6.03
2023-02-12T07:01:27.502Z,6.77
2023-02-12T07:03:57.346Z,5.83
2023-02-12T07:06:26.679Z,6.67
2023-02-12T07:08:55.870Z,7.00
2023-02-12T07:11:25.062Z,5.57
2023-02-12T07:13:52.831Z,7.17
2023-02-12T07:16:20.868Z,9.93
2023-02-12T07:18:49.023Z,8.50
2023-02-12T07:21:17.485Z,7.77
2023-02-12T07:23:50.799Z,9.53
2023-02-12T07:26:21.315Z,8.73
2023-02-12T07:28:49.316Z,7.03
2023-02-12T07:31:18.688Z,6.60
2023-02-12T07:33:47.289Z,9.30
2023-02-12T07:36:17.001Z,55.27
2023-02-12T07:38:45.557Z,15.33
2023-02-12T07:41:15.660Z,19.37
2023-02-12T07:43:47.088Z,8.93
2023-02-12T07:46:17.664Z,7.37
2023-02-12T07:48:46.057Z,7.50
2023-02-12T07:51:16.117Z,7.67
2023-02-12T07:53:44.262Z,5.97
2023-02-12T07:56:14.453Z,5.70
2023-02-12T07:58:45.587Z,6.00
2023-02-12T08:01:19.106Z,6.67
2023-02-12T08:03:47.983Z,6.18
2023-02-12T08:06:18.960Z,6.47
2023-02-12T08:08:47.345Z,5.80
2023-02-12T08:11:16.594Z,6.27
2023-02-12T08:13:46.834Z,6.43
2023-02-12T08:16:17.329Z,6.43
2023-02-12T08:18:45.626Z,6.63
2023-02-12T08:21:15.725Z,5.87
2023-02-12T08:23:43.527Z,5.80
2023-02-12T08:26:13.567Z,6.33
2023-02-12T08:28:43.056Z,5.93
2023-02-12T08:31:14.159Z,5.40
2023-02-12T08:33:42.245Z,6.10
2023-02-12T08:36:12.328Z,5.33
2023-02-12T08:38:40.667Z,5.37
2023-02-12T08:41:11.155Z,4.93
2023-02-12T08:43:39.683Z,5.87
2023-02-12T08:46:09.775Z,5.97
2023-02-12T08:48:39.411Z,5.93
2023-02-12T08:51:09.542Z,6.77
2023-02-12T08:53:38.443Z,5.83
2023-02-12T08:56:07.452Z,6.17
2023-02-12T08:58:36.364Z,7.60
2023-02-12T09:01:04.916Z,6.73
2023-02-12T09:03:33.077Z,7.33
2023-02-12T09:06:03.418Z,7.40
2023-02-12T09:08:31.447Z,5.80
2023-02-12T09:10:59.423Z,5.73
2023-02-12T09:13:27.196Z,5.40
2023-02-12T09:15:55.219Z,6.33
2023-02-12T09:18:23.190Z,5.60
2023-02-12T09:20:50.932Z,6.60
2023-02-12T09:23:20.029Z,6.43
2023-02-12T09:25:48.225Z,6.27
2023-02-12T09:28:16.185Z,5.83
2023-02-12T09:30:44.014Z,6.80
2023-02-12T09:33:12.579Z,6.70
2023-02-12T09:35:40.987Z,7.77
2023-02-12T09:38:09.897Z,7.00
2023-02-12T09:40:46.682Z,6.67
2023-02-12T09:43:20.779Z,7.53
2023-02-12T09:45:56.702Z,6.53
2023-02-12T09:48:38.755Z,6.07
2023-02-12T09:51:09.930Z,6.10
2023-02-12T09:53:41.003Z,6.27
2023-02-12T09:56:15.236Z,5.30
2023-02-12T09:58:47.639Z,5.27
2023-02-12T10:01:17.935Z,10.60
2023-02-12T10:03:48.852Z,5.83
2023-02-12T10:06:19.945Z,5.13
2023-02-12T10:08:59.826Z,5.60
2023-02-12T10:11:41.635Z,6.13
2023-02-12T10:14:37.284Z,5.33
2023-02-12T10:17:14.192Z,4.97
2023-02-12T10:20:05.043Z,4.73
2023-02-12T10:22:56.203Z,4.80
2023-02-12T10:25:29.379Z,5.33
2023-02-12T10:28:03.116Z,5.53
2023-02-12T10:30:43.854Z,5.10
2023-02-12T10:33:17.918Z,5.27
2023-02-12T10:35:50.674Z,5.67
2023-02-12T10:38:22.387Z,6.00
2023-02-12T10:40:51.248Z,5.83
2023-02-12T10:43:20.289Z,7.13
2023-02-12T10:45:48.934Z,5.40
2023-02-12T10:48:21.119Z,6.20
2023-02-12T10:50:58.661Z,5.47
2023-02-12T10:53:31.312Z,5.53
2023-02-12T10:56:17.306Z,5.30
2023-02-12T10:58:56.237Z,5.83
2023-02-12T11:01:28.242Z,7.07
2023-02-12T11:03:58.629Z,5.90
2023-02-12T11:06:28.822Z,5.53
2023-02-12T11:08:57.461Z,5.17
2023-02-12T11:11:28.323Z,6.20
2023-02-12T11:14:01.029Z,5.83
2023-02-12T11:16:31.153Z,6.90
2023-02-12T11:19:01.347Z,12.70
2023-02-12T11:21:29.290Z,8.20
2023-02-12T11:23:57.068Z,7.97
2023-02-12T11:26:28.284Z,6.33
2023-02-12T11:29:00.104Z,6.37
2023-02-12T11:31:29.618Z,6.30
2023-02-12T11:34:10.006Z,6.50
2023-02-12T11:36:39.874Z,7.40
2023-02-12T11:39:24.696Z,7.63
2023-02-12T11:41:55.383Z,7.63
2023-02-12T11:44:28.276Z,7.83
2023-02-12T11:46:59.719Z,7.93
2023-02-12T11:49:32.768Z,9.40
2023-02-12T11:52:03.541Z,8.70
2023-02-12T11:54:40.683Z,7.77
2023-02-12T11:57:08.670Z,8.10
2023-02-12T11:59:42.692Z,7.20
2023-02-12T12:02:23.177Z,9.17
2023-02-12T12:04:54.662Z,7.30
2023-02-12T12:07:28.090Z,7.40
2023-02-12T12:10:01.258Z,8.03
2023-02-12T12:12:41.038Z,6.80
2023-02-12T12:15:35.817Z,7.90
2023-02-12T12:18:34.520Z,9.40
2023-02-12T12:21:09.328Z,6.57
2023-02-12T12:23:41.364Z,7.83
2023-02-12T12:26:15.796Z,6.10
2023-02-12T12:28:49.967Z,6.20
2023-02-12T12:31:24.900Z,6.50
2023-02-12T12:33:58.057Z,6.20
2023-02-12T12:36:45.099Z,5.90
2023-02-12T12:39:21.500Z,5.97
2023-02-12T12:42:11.172Z,6.17
2023-02-12T12:44:51.803Z,6.53
2023-02-12T12:47:29.185Z,7.03
2023-02-12T12:50:05.977Z,12.30
2023-02-12T12:52:57.748Z,6.50
2023-02-12T12:56:01.888Z,9.93
2023-02-12T12:58:43.880Z,6.77
2023-02-12T13:01:28.701Z,6.27
2023-02-12T13:04:30.064Z,6.97
2023-02-12T13:07:16.295Z,6.13
2023-02-12T13:09:58.546Z,6.23
2023-02-12T13:12:46.814Z,6.27
2023-02-12T13:15:22.472Z,5.83
2023-02-12T13:17:59.160Z,5.73
2023-02-12T13:20:36.492Z,5.50
2023-02-12T13:23:15.164Z,5.57
2023-02-12T13:25:50.360Z,5.17
2023-02-12T13:28:25.576Z,4.93
2023-02-12T13:30:55.841Z,4.60
2023-02-12T13:33:26.654Z,4.73
2023-02-12T13:35:59.201Z,8.73
2023-02-12T13:38:32.966Z,4.53
2023-02-12T13:41:04.325Z,5.00
2023-02-12T13:43:45.916Z,4.90
2023-02-12T13:46:22.409Z,5.50
2023-02-12T13:48:58.032Z,6.03
2023-02-12T13:51:37.563Z,10.10
2023-02-12T13:54:29.408Z,5.77
2023-02-12T13:56:59.736Z,6.73
2023-02-12T13:59:40.852Z,4.97
2023-02-12T14:02:28.911Z,4.73
2023-02-12T14:04:59.874Z,5.70
2023-02-12T14:07:42.977Z,5.20
2023-02-12T14:10:23.814Z,5.93
2023-02-12T14:12:53.097Z,4.97
2023-02-12T14:15:31.659Z,6.70
2023-02-12T14:18:21.630Z,5.73
2023-02-12T14:20:50.138Z,5.43
2023-02-12T14:23:27.142Z,5.20
2023-02-12T14:26:04.128Z,4.27
2023-02-12T14:28:44.229Z,5.67
2023-02-12T14:31:33.877Z,5.17
2023-02-12T14:34:39.401Z,4.87
2023-02-12T14:37:37.653Z,5.63
2023-02-12T14:40:44.419Z,5.77
2023-02-12T14:43:57.720Z,6.33
2023-02-12T14:46:45.709Z,6.27
2023-02-12T14:49:23.064Z,6.50
2023-02-12T14:51:55.134Z,6.17
2023-02-12T14:54:30.265Z,6.20
2023-02-12T14:57:01.579Z,5.80
2023-02-12T14:59:34.771Z,5.00
2023-02-12T15:02:06.056Z,5.37
2023-02-12T15:04:37.648Z,4.47
2023-02-12T15:07:12.103Z,7.67
2023-02-12T15:09:45.966Z,6.07
2023-02-12T15:12:20.453Z,4.03
2023-02-12T15:14:57.157Z,4.13
2023-02-12T15:17:30.937Z,3.87
2023-02-12T15:20:03.373Z,4.40
2023-02-12T15:22:33.704Z,5.23
2023-02-12T15:25:27.574Z,5.73
2023-02-12T15:27:58.602Z,8.77
2023-02-12T15:30:30.167Z,12.63
2023-02-12T15:33:01.940Z,8.83
2023-02-12T15:35:32.060Z,4.50
2023-02-12T15:38:01.208Z,4.33
2023-02-12T15:40:29.500Z,4.27
2023-02-12T15:42:59.053Z,4.60
2023-02-12T15:45:29.640Z,5.30
2023-02-12T15:48:16.659Z,5.53
2023-02-12T15:50:52.808Z,4.40
2023-02-12T15:53:21.426Z,4.80
2023-02-12T15:55:50.496Z,4.60
2023-02-12T15:58:24.096Z,4.43
2023-02-12T16:00:55.166Z,4.57
2023-02-12T16:03:25.863Z,4.90
2023-02-12T16:05:57.518Z,4.60
2023-02-12T16:08:26.057Z,5.07
2023-02-12T16:10:55.574Z,4.90
2023-02-12T16:13:30.089Z,4.63
2023-02-12T16:16:19.014Z,6.00
2023-02-12T16:18:47.579Z,4.47
2023-02-12T16:21:18.292Z,4.70
2023-02-12T16:23:47.413Z,4.40
2023-02-12T16:26:20.216Z,3.97
2023-02-12T16:28:49.208Z,4.17
2023-02-12T16:31:19.447Z,3.80
2023-02-12T16:33:52.581Z,4.50
2023-02-12T16:36:31.928Z,6.83
2023-02-12T16:39:02.332Z,4.13
2023-02-12T16:41:31.812Z,4.20
2023-02-12T16:44:22.139Z,4.10
2023-02-12T16:46:54.119Z,4.37
2023-02-12T16:49:24.295Z,4.20
2023-02-12T16:51:53.208Z,3.63
2023-02-12T16:54:29.915Z,3.57
2023-02-12T16:56:58.660Z,4.00
2023-02-12T16:59:27.044Z,3.57
2023-02-12T17:02:01.752Z,2.87
2023-02-12T17:04:29.542Z,3.80
2023-02-12T17:06:58.119Z,3.70
2023-02-12T17:09:25.999Z,3.50
2023-02-12T17:11:53.716Z,3.80
2023-02-12T17:14:21.793Z,3.03
2023-02-12T17:16:50.189Z,3.67
2023-02-12T17:19:19.306Z,3.70
2023-02-12T17:21:51.270Z,4.17
2023-02-12T17:24:22.245Z,4.30
2023-02-12T17:26:50.835Z,4.50
2023-02-12T17:29:19.336Z,4.57
2023-02-12T17:31:47.996Z,4.83
2023-02-12T17:34:17.229Z,5.53
2023-02-12T17:36:46.468Z,5.40
2023-02-12T17:39:15.630Z,9.10
2023-02-12T17:41:44.538Z,10.50
2023-02-12T17:44:13.905Z,10.30
2023-02-12T17:46:42.528Z,10.60
2023-02-12T17:49:10.394Z,11.27
2023-02-12T17:51:38.572Z,10.13
2023-02-12T17:54:07.792Z,8.87
2023-02-12T17:56:35.911Z,7.47
2023-02-12T17:59:07.120Z,7.47
2023-02-12T18:01:35.991Z,8.00
2023-02-12T18:04:03.911Z,8.57
2023-02-12T18:06:33.019Z,7.90
2023-02-12T18:09:01.705Z,7.73
2023-02-12T18:11:32.140Z,7.17
2023-02-12T18:14:01.158Z,7.37
2023-02-12T18:16:31.551Z,7.10
2023-02-12T18:19:00.780Z,7.90
2023-02-12T18:21:28.881Z,7.93
2023-02-12T18:23:56.719Z,7.30
2023-02-12T18:26:24.621Z,6.37
2023-02-12T18:28:54.327Z,6.90
2023-02-12T18:31:22.510Z,6.60
2023-02-12T18:33:50.426Z,6.53
2023-02-12T18:36:20.837Z,6.50
2023-02-12T18:38:51.240Z,6.70
2023-02-12T18:41:21.486Z,6.93
2023-02-12T18:43:49.341Z,6.93
2023-02-12T18:46:20.516Z,5.97
2023-02-12T18:48:48.948Z,6.43
2023-02-12T18:51:19.498Z,6.70
2023-02-12T18:53:54.824Z,6.47
2023-02-12T18:56:22.927Z,6.30
2023-02-12T18:58:56.435Z,7.27
2023-02-12T19:01:26.404Z,7.77
2023-02-12T19:03:55.267Z,6.77
2023-02-12T19:06:23.158Z,7.27
2023-02-12T19:08:54.606Z,7.93
2023-02-12T19:11:22.414Z,7.43
2023-02-12T19:13:50.439Z,8.17
2023-02-12T19:16:20.085Z,8.00
2023-02-12T19:18:51.119Z,8.27
2023-02-12T19:21:19.793Z,8.20
2023-02-12T19:23:47.528Z,8.07
2023-02-12T19:26:17.326Z,8.93
2023-02-12T19:28:45.333Z,8.03
2023-02-12T19:31:15.542Z,8.73
2023-02-12T19:33:44.545Z,8.50
2023-02-12T19:36:16.857Z,8.77
2023-02-12T19:38:45.492Z,7.80
2023-02-12T19:41:15.908Z,8.40
2023-02-12T19:43:44.297Z,8.97
2023-02-12T19:46:14.033Z,9.30
2023-02-12T19:48:42.104Z,9.40
2023-02-12T19:51:15.701Z,9.23
2023-02-12T19:53:43.588Z,9.87
2023-02-12T19:56:11.718Z,11.13
2023-02-12T19:58:40.112Z,10.10
2023-02-12T20:01:12.437Z,11.23
2023-02-12T20:03:40.594Z,11.33
2023-02-12T20:06:10.722Z,11.17
2023-02-12T20:08:41.574Z,9.90
2023-02-12T20:11:11.296Z,9.17
2023-02-12T20:13:39.348Z,9.30
2023-02-12T20:16:10.820Z,8.93
2023-02-12T20:18:39.185Z,8.87
2023-02-12T20:21:10.349Z,9.17
2023-02-12T20:23:39.604Z,9.67
2023-02-12T20:26:09.782Z,10.13
2023-02-12T20:28:38.589Z,10.80
2023-02-12T20:31:10.983Z,10.10
2023-02-12T20:33:38.941Z,10.30
2023-02-12T20:36:08.100Z,9.40
2023-02-12T20:38:36.247Z,9.90
2023-02-12T20:41:06.970Z,10.20
2023-02-12T20:43:35.741Z,9.93
2023-02-12T20:46:06.671Z,10.47
2023-02-12T20:48:34.873Z,10.43
2023-02-12T20:51:06.459Z,9.90
2023-02-12T20:53:35.192Z,9.73
2023-02-12T20:56:05.413Z,10.10
2023-02-12T20:58:33.313Z,10.53
2023-02-12T21:01:05.959Z,10.57
2023-02-12T21:03:33.746Z,10.73
2023-02-12T21:06:02.065Z,11.03
2023-02-12T21:08:30.038Z,11.80
2023-02-12T21:11:01.740Z,12.40
2023-02-12T21:13:31.041Z,11.37
2023-02-12T21:16:10.034Z,11.07
2023-02-12T21:18:38.515Z,11.00
2023-02-12T21:21:08.020Z,11.53
2023-02-12T21:23:36.495Z,11.40
2023-02-12T21:26:05.120Z,11.73
2023-02-12T21:28:35.263Z,12.77
2023-02-12T21:31:08.304Z,11.50
2023-02-12T21:33:36.710Z,12.00
2023-02-12T21:36:20.085Z,12.57
2023-02-12T21:38:49.221Z,12.40
2023-02-12T21:41:18.960Z,14.33
2023-02-12T21:43:50.291Z,14.30
2023-02-12T21:46:19.437Z,15.60
2023-02-12T21:48:47.466Z,14.73
2023-02-12T21:51:20.640Z,15.10
2023-02-12T21:53:49.072Z,16.07
2023-02-12T21:56:19.217Z,15.77
2023-02-12T21:58:49.734Z,17.90
2023-02-12T22:01:19.404Z,18.37
2023-02-12T22:03:47.240Z,17.57
2023-02-12T22:06:17.705Z,18.17
2023-02-12T22:08:45.450Z,17.47
2023-02-12T22:11:14.081Z,18.13
2023-02-12T22:13:42.291Z,19.63
2023-02-12T22:16:14.641Z,22.63
2023-02-12T22:18:43.621Z,19.97
2023-02-12T22:21:13.757Z,19.30
2023-02-12T22:23:42.233Z,19.73
2023-02-12T22:26:11.790Z,19.33
2023-02-12T22:28:42.058Z,22.20
2023-02-12T22:31:12.801Z,21.93
2023-02-12T22:33:41.303Z,22.63
2023-02-12T22:36:10.836Z,22.10
2023-02-12T22:38:40.202Z,22.17
2023-02-12T22:41:09.735Z,21.37
2023-02-12T22:43:40.566Z,23.87
2023-02-12T22:46:12.817Z,22.47
2023-02-12T22:48:41.228Z,23.63
2023-02-12T22:51:10.406Z,22.83
2023-02-12T22:53:38.336Z,22.63
2023-02-12T22:56:07.573Z,24.27
2023-02-12T22:58:36.995Z,23.80
2023-02-12T23:01:08.932Z,23.53
2023-02-12T23:03:38.279Z,21.30
2023-02-12T23:06:07.677Z,21.87
2023-02-12T23:08:36.052Z,25.10
2023-02-12T23:11:05.939Z,23.47
2023-02-12T23:13:34.873Z,23.20
2023-02-12T23:16:02.773Z,25.17
2023-02-12T23:18:30.672Z,24.00
2023-02-12T23:21:00.322Z,25.30
2023-02-12T23:23:28.840Z,24.67
2023-02-12T23:25:56.833Z,25.10
2023-02-12T23:28:24.802Z,24.63
2023-02-12T23:30:54.603Z,24.93
2023-02-12T23:33:22.752Z,25.73
2023-02-12T23:35:50.988Z,26.63
2023-02-12T23:38:20.178Z,27.57
2023-02-12T23:40:48.791Z,27.90
2023-02-12T23:43:16.757Z,26.60
2023-02-12T23:45:45.085Z,29.07
2023-02-12T23:48:13.520Z,29.67
2023-02-12T23:50:41.431Z,28.70
2023-02-12T23:53:09.985Z,29.63
2023-02-12T23:55:40.642Z,28.83
2023-02-12T23:58:09.228Z,29.30
